sensor_id;sensor_type;location;lat;lon;timestamp;pressure;altitude;pressure_sealevel;temperature;humidity
54920;BME280;63804;53.120;8.764;2022-12-11T00:00:37;101266.53;;;3.01;41.68
54920;BME280;63804;53.120;8.764;2022-12-11T00:03:02;101253.72;;;2.77;41.70
54920;BME280;63804;53.120;8.764;2022-12-11T00:05:28;101263.31;;;2.93;41.74
54920;BME280;63804;53.120;8.764;2022-12-11T00:07:54;101258.53;;;2.80;41.99
54920;BME280;63804;53.120;8.764;2022-12-11T00:10:20;101253.13;;;2.80;41.89
54920;BME280;63804;53.120;8.764;2022-12-11T00:12:45;101257.22;;;2.72;42.04
54920;BME280;63804;53.120;8.764;2022-12-11T00:15:11;101256.41;;;2.77;42.02
54920;BME280;63804;53.120;8.764;2022-12-11T00:17:37;101259.13;;;2.67;42.01
54920;BME280;63804;53.120;8.764;2022-12-11T00:20:03;101249.13;;;2.77;41.95
54920;BME280;63804;53.120;8.764;2022-12-11T00:22:30;101244.25;;;2.79;41.68
54920;BME280;63804;53.120;8.764;2022-12-11T00:24:55;101245.59;;;2.82;42.08
54920;BME280;63804;53.120;8.764;2022-12-11T00:27:21;101250.38;;;2.95;41.80
54920;BME280;63804;53.120;8.764;2022-12-11T00:29:47;101249.75;;;3.09;41.28
54920;BME280;63804;53.120;8.764;2022-12-11T00:32:12;101247.94;;;2.94;41.64
54920;BME280;63804;53.120;8.764;2022-12-11T00:34:38;101244.94;;;3.01;41.43
54920;BME280;63804;53.120;8.764;2022-12-11T00:37:04;101249.75;;;3.09;41.40
54920;BME280;63804;53.120;8.764;2022-12-11T00:39:30;101246.25;;;3.03;41.47
54920;BME280;63804;53.120;8.764;2022-12-11T00:41:55;101250.84;;;3.08;41.45
54920;BME280;63804;53.120;8.764;2022-12-11T00:44:22;101244.63;;;3.07;41.36
54920;BME280;63804;53.120;8.764;2022-12-11T00:46:48;101243.59;;;2.98;41.56
54920;BME280;63804;53.120;8.764;2022-12-11T00:49:15;101241.00;;;2.83;41.81
54920;BME280;63804;53.120;8.764;2022-12-11T00:51:41;101245.28;;;2.89;41.77
54920;BME280;63804;53.120;8.764;2022-12-11T00:54:06;101249.31;;;2.91;41.67
54920;BME280;63804;53.120;8.764;2022-12-11T00:56:32;101245.50;;;2.97;41.67
54920;BME280;63804;53.120;8.764;2022-12-11T00:58:58;101247.16;;;2.88;41.82
54920;BME280;63804;53.120;8.764;2022-12-11T01:01:24;101246.09;;;2.89;41.83
54920;BME280;63804;53.120;8.764;2022-12-11T01:03:51;101248.34;;;2.67;42.10
54920;BME280;63804;53.120;8.764;2022-12-11T01:06:20;101251.03;;;2.67;42.21
54920;BME280;63804;53.120;8.764;2022-12-11T01:08:46;101255.25;;;2.88;41.95
54920;BME280;63804;53.120;8.764;2022-12-11T01:11:14;101260.63;;;2.98;41.79
54920;BME280;63804;53.120;8.764;2022-12-11T01:13:41;101259.13;;;2.72;42.05
54920;BME280;63804;53.120;8.764;2022-12-11T01:16:10;101254.84;;;2.66;42.27
54920;BME280;63804;53.120;8.764;2022-12-11T01:18:37;101263.59;;;2.87;42.09
54920;BME280;63804;53.120;8.764;2022-12-11T01:21:09;101265.22;;;2.88;41.87
54920;BME280;63804;53.120;8.764;2022-12-11T01:23:35;101263.34;;;2.88;42.07
54920;BME280;63804;53.120;8.764;2022-12-11T01:26:09;101267.59;;;3.00;41.82
54920;BME280;63804;53.120;8.764;2022-12-11T01:28:35;101263.31;;;2.93;41.76
54920;BME280;63804;53.120;8.764;2022-12-11T01:31:01;101259.28;;;2.91;42.13
54920;BME280;63804;53.120;8.764;2022-12-11T01:33:27;101255.53;;;2.92;41.84
54920;BME280;63804;53.120;8.764;2022-12-11T01:35:53;101256.22;;;2.53;42.74
54920;BME280;63804;53.120;8.764;2022-12-11T01:38:19;101253.72;;;2.67;42.66
54920;BME280;63804;53.120;8.764;2022-12-11T01:40:46;101257.47;;;2.76;42.58
54920;BME280;63804;53.120;8.764;2022-12-11T01:43:12;101256.88;;;2.89;42.15
54920;BME280;63804;53.120;8.764;2022-12-11T01:45:41;101262.81;;;2.86;42.16
54920;BME280;63804;53.120;8.764;2022-12-11T01:48:13;101259.91;;;2.77;42.14
54920;BME280;63804;53.120;8.764;2022-12-11T01:50:48;101266.84;;;2.89;42.21
54920;BME280;63804;53.120;8.764;2022-12-11T01:53:23;101262.69;;;3.07;41.57
54920;BME280;63804;53.120;8.764;2022-12-11T01:55:54;101261.09;;;3.06;41.75
54920;BME280;63804;53.120;8.764;2022-12-11T01:58:21;101261.66;;;3.03;41.72
54920;BME280;63804;53.120;8.764;2022-12-11T02:00:51;101266.00;;;2.93;42.04
54920;BME280;63804;53.120;8.764;2022-12-11T02:03:18;101249.81;;;2.98;41.84
54920;BME280;63804;53.120;8.764;2022-12-11T02:05:44;101254.19;;;2.84;42.18
54920;BME280;63804;53.120;8.764;2022-12-11T02:08:10;101254.94;;;2.95;42.22
54920;BME280;63804;53.120;8.764;2022-12-11T02:13:20;101242.44;;;2.59;42.73
54920;BME280;63804;53.120;8.764;2022-12-11T02:18:28;101244.78;;;2.76;42.30
54920;BME280;63804;53.120;8.764;2022-12-11T02:26:07;101241.31;;;2.71;42.39
54920;BME280;63804;53.120;8.764;2022-12-11T02:28:46;101245.91;;;2.75;42.18
54920;BME280;63804;53.120;8.764;2022-12-11T02:31:32;101254.19;;;2.84;42.13
54920;BME280;63804;53.120;8.764;2022-12-11T02:34:10;101255.59;;;2.71;42.33
54920;BME280;63804;53.120;8.764;2022-12-11T02:36:42;101252.03;;;2.86;41.85
54920;BME280;63804;53.120;8.764;2022-12-11T02:39:11;101244.72;;;2.87;41.88
54920;BME280;63804;53.120;8.764;2022-12-11T02:41:42;101238.09;;;2.69;42.02
54920;BME280;63804;53.120;8.764;2022-12-11T02:44:10;101237.50;;;2.82;42.05
54920;BME280;63804;53.120;8.764;2022-12-11T02:46:37;101240.63;;;3.00;41.66
54920;BME280;63804;53.120;8.764;2022-12-11T02:49:04;101234.25;;;2.85;41.92
54920;BME280;63804;53.120;8.764;2022-12-11T02:51:37;101237.47;;;2.87;41.90
54920;BME280;63804;53.120;8.764;2022-12-11T02:54:06;101230.13;;;2.98;41.79
54920;BME280;63804;53.120;8.764;2022-12-11T02:56:39;101230.41;;;2.96;42.00
54920;BME280;63804;53.120;8.764;2022-12-11T02:59:14;101230.63;;;3.00;41.82
54920;BME280;63804;53.120;8.764;2022-12-11T03:01:41;101225.00;;;2.96;41.76
54920;BME280;63804;53.120;8.764;2022-12-11T03:04:07;101224.31;;;2.81;42.01
54920;BME280;63804;53.120;8.764;2022-12-11T03:06:41;101228.94;;;2.65;42.20
54920;BME280;63804;53.120;8.764;2022-12-11T03:09:09;101221.97;;;2.64;42.29
54920;BME280;63804;53.120;8.764;2022-12-11T03:11:34;101219.72;;;2.76;41.75
54920;BME280;63804;53.120;8.764;2022-12-11T03:14:01;101219.19;;;2.79;41.77
54920;BME280;63804;53.120;8.764;2022-12-11T03:16:39;101222.47;;;2.71;41.72
54920;BME280;63804;53.120;8.764;2022-12-11T03:21:45;101217.63;;;2.68;41.96
54920;BME280;63804;53.120;8.764;2022-12-11T03:24:40;101227.84;;;2.71;41.97
54920;BME280;63804;53.120;8.764;2022-12-11T03:30:06;101210.50;;;2.87;41.74
54920;BME280;63804;53.120;8.764;2022-12-11T03:32:39;101220.84;;;2.70;41.99
54920;BME280;63804;53.120;8.764;2022-12-11T03:35:20;101213.59;;;2.60;41.99
54920;BME280;63804;53.120;8.764;2022-12-11T03:37:50;101219.53;;;2.62;42.14
54920;BME280;63804;53.120;8.764;2022-12-11T03:40:19;101220.78;;;2.80;41.96
54920;BME280;63804;53.120;8.764;2022-12-11T03:42:50;101215.41;;;2.75;41.87
54920;BME280;63804;53.120;8.764;2022-12-11T03:45:18;101208.44;;;2.74;42.12
54920;BME280;63804;53.120;8.764;2022-12-11T03:47:46;101207.09;;;2.71;42.22
54920;BME280;63804;53.120;8.764;2022-12-11T03:50:13;101207.59;;;2.73;42.29
54920;BME280;63804;53.120;8.764;2022-12-11T03:52:42;101201.94;;;2.75;42.16
54920;BME280;63804;53.120;8.764;2022-12-11T03:55:12;101199.22;;;2.80;41.67
54920;BME280;63804;53.120;8.764;2022-12-11T03:57:38;101207.09;;;2.66;42.27
54920;BME280;63804;53.120;8.764;2022-12-11T04:00:06;101208.41;;;2.79;41.90
54920;BME280;63804;53.120;8.764;2022-12-11T04:02:32;101212.16;;;2.78;41.84
54920;BME280;63804;53.120;8.764;2022-12-11T04:04:57;101216.53;;;2.69;42.38
54920;BME280;63804;53.120;8.764;2022-12-11T04:07:23;101212.28;;;2.57;42.40
54920;BME280;63804;53.120;8.764;2022-12-11T04:09:49;101216.28;;;2.70;41.88
54920;BME280;63804;53.120;8.764;2022-12-11T04:12:15;101217.59;;;2.73;42.05
54920;BME280;63804;53.120;8.764;2022-12-11T04:14:47;101217.66;;;2.57;42.23
54920;BME280;63804;53.120;8.764;2022-12-11T04:17:29;101218.19;;;2.59;42.11
54920;BME280;63804;53.120;8.764;2022-12-11T04:20:28;101222.16;;;2.77;41.81
54920;BME280;63804;53.120;8.764;2022-12-11T04:23:13;101216.22;;;2.81;41.55
54920;BME280;63804;53.120;8.764;2022-12-11T04:26:09;101222.44;;;2.76;42.02
54920;BME280;63804;53.120;8.764;2022-12-11T04:28:36;101231.13;;;2.63;42.12
54920;BME280;63804;53.120;8.764;2022-12-11T04:31:03;101233.03;;;2.62;42.30
54920;BME280;63804;53.120;8.764;2022-12-11T04:33:29;101233.75;;;2.73;42.05
54920;BME280;63804;53.120;8.764;2022-12-11T04:35:59;101227.34;;;2.64;42.05
54920;BME280;63804;53.120;8.764;2022-12-11T04:38:25;101221.53;;;2.36;42.62
54920;BME280;63804;53.120;8.764;2022-12-11T04:41:03;101231.41;;;2.61;42.04
54920;BME280;63804;53.120;8.764;2022-12-11T04:43:29;101230.19;;;2.88;41.51
54920;BME280;63804;53.120;8.764;2022-12-11T04:46:07;101227.44;;;2.93;41.61
54920;BME280;63804;53.120;8.764;2022-12-11T04:48:33;101222.31;;;2.96;41.55
54920;BME280;63804;53.120;8.764;2022-12-11T04:50:59;101228.88;;;2.85;41.67
54920;BME280;63804;53.120;8.764;2022-12-11T04:53:26;101219.25;;;2.69;42.01
54920;BME280;63804;53.120;8.764;2022-12-11T04:55:52;101220.06;;;2.64;42.24
54920;BME280;63804;53.120;8.764;2022-12-11T04:58:18;101224.91;;;2.67;41.92
54920;BME280;63804;53.120;8.764;2022-12-11T05:00:44;101225.91;;;2.76;41.90
54920;BME280;63804;53.120;8.764;2022-12-11T05:03:10;101228.28;;;2.88;41.62
54920;BME280;63804;53.120;8.764;2022-12-11T05:05:36;101232.09;;;2.87;41.42
54920;BME280;63804;53.120;8.764;2022-12-11T05:08:02;101225.56;;;2.93;41.61
54920;BME280;63804;53.120;8.764;2022-12-11T05:10:27;101225.88;;;2.82;41.86
54920;BME280;63804;53.120;8.764;2022-12-11T05:12:53;101229.75;;;2.70;42.05
54920;BME280;63804;53.120;8.764;2022-12-11T05:15:19;101229.47;;;2.67;42.19
54920;BME280;63804;53.120;8.764;2022-12-11T05:17:44;101224.03;;;2.82;41.81
54920;BME280;63804;53.120;8.764;2022-12-11T05:20:10;101223.50;;;2.75;41.89
54920;BME280;63804;53.120;8.764;2022-12-11T05:22:37;101220.16;;;2.44;42.53
54920;BME280;63804;53.120;8.764;2022-12-11T05:25:03;101221.00;;;2.34;42.64
54920;BME280;63804;53.120;8.764;2022-12-11T05:27:29;101224.69;;;2.53;42.27
54920;BME280;63804;53.120;8.764;2022-12-11T05:29:55;101225.44;;;2.69;42.00
54920;BME280;63804;53.120;8.764;2022-12-11T05:32:20;101220.50;;;2.82;41.73
54920;BME280;63804;53.120;8.764;2022-12-11T05:34:46;101222.75;;;2.64;42.17
54920;BME280;63804;53.120;8.764;2022-12-11T05:37:12;101230.72;;;2.85;41.72
54920;BME280;63804;53.120;8.764;2022-12-11T05:39:38;101236.41;;;2.83;41.98
54920;BME280;63804;53.120;8.764;2022-12-11T05:42:03;101238.81;;;2.85;41.76
54920;BME280;63804;53.120;8.764;2022-12-11T05:44:29;101234.25;;;2.85;41.78
54920;BME280;63804;53.120;8.764;2022-12-11T05:46:55;101225.59;;;2.88;41.70
54920;BME280;63804;53.120;8.764;2022-12-11T05:49:21;101229.44;;;2.77;41.71
54920;BME280;63804;53.120;8.764;2022-12-11T05:51:46;101229.41;;;2.82;41.95
54920;BME280;63804;53.120;8.764;2022-12-11T05:54:12;101229.38;;;2.87;41.75
54920;BME280;63804;53.120;8.764;2022-12-11T05:56:38;101224.00;;;2.87;41.53
54920;BME280;63804;53.120;8.764;2022-12-11T05:59:05;101226.16;;;2.80;41.93
54920;BME280;63804;53.120;8.764;2022-12-11T06:01:32;101219.97;;;2.79;41.79
54920;BME280;63804;53.120;8.764;2022-12-11T06:03:59;101219.28;;;2.58;42.22
54920;BME280;63804;53.120;8.764;2022-12-11T06:06:26;101223.56;;;2.65;42.28
54920;BME280;63804;53.120;8.764;2022-12-11T06:08:54;101221.31;;;2.82;41.96
54920;BME280;63804;53.120;8.764;2022-12-11T06:11:20;101214.06;;;2.77;41.79
54920;BME280;63804;53.120;8.764;2022-12-11T06:13:46;101201.38;;;2.78;41.89
54920;BME280;63804;53.120;8.764;2022-12-11T06:16:13;101207.84;;;2.82;41.95
54920;BME280;63804;53.120;8.764;2022-12-11T06:18:41;101212.69;;;2.80;42.02
54920;BME280;63804;53.120;8.764;2022-12-11T06:21:15;101208.94;;;2.76;41.84
54920;BME280;63804;53.120;8.764;2022-12-11T06:23:43;101208.72;;;2.72;42.22
54920;BME280;63804;53.120;8.764;2022-12-11T06:26:09;101205.19;;;2.77;42.13
54920;BME280;63804;53.120;8.764;2022-12-11T06:28:35;101198.69;;;2.78;42.08
54920;BME280;63804;53.120;8.764;2022-12-11T06:31:02;101200.09;;;2.70;42.14
54920;BME280;63804;53.120;8.764;2022-12-11T06:33:28;101199.50;;;2.73;42.13
54920;BME280;63804;53.120;8.764;2022-12-11T06:35:54;101202.75;;;2.75;41.82
54920;BME280;63804;53.120;8.764;2022-12-11T06:38:21;101195.97;;;2.83;41.91
54920;BME280;63804;53.120;8.764;2022-12-11T06:40:54;101203.25;;;2.83;41.64
54920;BME280;63804;53.120;8.764;2022-12-11T06:43:21;101208.94;;;2.76;41.91
54920;BME280;63804;53.120;8.764;2022-12-11T06:45:47;101209.47;;;2.78;41.92
54920;BME280;63804;53.120;8.764;2022-12-11T06:48:13;101215.44;;;2.70;42.07
54920;BME280;63804;53.120;8.764;2022-12-11T06:50:38;101213.53;;;2.75;42.12
54920;BME280;63804;53.120;8.764;2022-12-11T06:53:04;101221.06;;;2.73;42.18
54920;BME280;63804;53.120;8.764;2022-12-11T06:55:30;101219.72;;;2.76;42.04
54920;BME280;63804;53.120;8.764;2022-12-11T06:57:55;101218.63;;;2.82;42.00
54920;BME280;63804;53.120;8.764;2022-12-11T07:00:21;101214.84;;;2.83;41.95
54920;BME280;63804;53.120;8.764;2022-12-11T07:02:49;101222.13;;;2.83;41.91
54920;BME280;63804;53.120;8.764;2022-12-11T07:05:15;101219.47;;;2.72;42.15
54920;BME280;63804;53.120;8.764;2022-12-11T07:07:40;101217.63;;;2.68;42.31
54920;BME280;63804;53.120;8.764;2022-12-11T07:10:07;101213.28;;;2.72;42.08
54920;BME280;63804;53.120;8.764;2022-12-11T07:12:33;101213.91;;;2.58;42.38
54920;BME280;63804;53.120;8.764;2022-12-11T07:14:58;101214.47;;;2.50;42.54
54920;BME280;63804;53.120;8.764;2022-12-11T07:17:24;101222.56;;;2.50;42.81
54920;BME280;63804;53.120;8.764;2022-12-11T07:19:50;101211.72;;;2.60;42.54
54920;BME280;63804;53.120;8.764;2022-12-11T07:22:15;101216.56;;;2.64;42.43
54920;BME280;63804;53.120;8.764;2022-12-11T07:24:41;101220.94;;;2.49;42.43
54920;BME280;63804;53.120;8.764;2022-12-11T07:27:07;101226.88;;;2.46;42.72
54920;BME280;63804;53.120;8.764;2022-12-11T07:29:33;101220.31;;;2.68;42.32
54920;BME280;63804;53.120;8.764;2022-12-11T07:31:59;101224.09;;;2.61;42.52
54920;BME280;63804;53.120;8.764;2022-12-11T07:34:25;101227.94;;;2.55;42.29
54920;BME280;63804;53.120;8.764;2022-12-11T07:36:50;101221.47;;;2.51;42.54
54920;BME280;63804;53.120;8.764;2022-12-11T07:39:16;101219.59;;;2.52;42.47
54920;BME280;63804;53.120;8.764;2022-12-11T07:41:42;101220.34;;;2.63;42.23
54920;BME280;63804;53.120;8.764;2022-12-11T07:44:08;101219.28;;;2.64;42.27
54920;BME280;63804;53.120;8.764;2022-12-11T07:46:34;101216.03;;;2.56;42.29
54920;BME280;63804;53.120;8.764;2022-12-11T07:49:00;101230.53;;;2.71;42.15
54920;BME280;63804;53.120;8.764;2022-12-11T07:51:28;101228.09;;;2.74;42.11
54920;BME280;63804;53.120;8.764;2022-12-11T07:53:59;101222.84;;;2.44;42.82
54920;BME280;63804;53.120;8.764;2022-12-11T07:56:27;101226.78;;;2.67;42.19
54920;BME280;63804;53.120;8.764;2022-12-11T07:58:53;101219.47;;;2.77;42.20
54920;BME280;63804;53.120;8.764;2022-12-11T08:01:21;101220.78;;;2.80;42.04
54920;BME280;63804;53.120;8.764;2022-12-11T08:03:47;101223.03;;;2.63;42.38
54920;BME280;63804;53.120;8.764;2022-12-11T08:06:14;101224.56;;;2.79;42.33
54920;BME280;63804;53.120;8.764;2022-12-11T08:08:40;101220.22;;;2.83;42.02
54920;BME280;63804;53.120;8.764;2022-12-11T08:11:08;101220.03;;;2.69;42.30
54920;BME280;63804;53.120;8.764;2022-12-11T08:13:35;101230.22;;;2.83;42.11
54920;BME280;63804;53.120;8.764;2022-12-11T08:16:08;101232.38;;;2.81;42.25
54920;BME280;63804;53.120;8.764;2022-12-11T08:18:35;101228.88;;;2.80;42.08
54920;BME280;63804;53.120;8.764;2022-12-11T08:21:05;101230.25;;;2.77;42.16
54920;BME280;63804;53.120;8.764;2022-12-11T08:23:32;101229.47;;;2.72;42.15
54920;BME280;63804;53.120;8.764;2022-12-11T08:25:57;101234.78;;;2.87;42.18
54920;BME280;63804;53.120;8.764;2022-12-11T08:28:23;101236.09;;;2.90;41.92
54920;BME280;63804;53.120;8.764;2022-12-11T08:30:49;101235.28;;;2.89;42.12
54920;BME280;63804;53.120;8.764;2022-12-11T08:33:14;101232.69;;;2.74;42.38
54920;BME280;63804;53.120;8.764;2022-12-11T08:35:40;101244.47;;;2.88;42.08
54920;BME280;63804;53.120;8.764;2022-12-11T08:38:06;101234.81;;;2.82;42.01
54920;BME280;63804;53.120;8.764;2022-12-11T08:40:32;101240.31;;;2.56;42.60
54920;BME280;63804;53.120;8.764;2022-12-11T08:42:57;101237.84;;;2.70;42.34
54920;BME280;63804;53.120;8.764;2022-12-11T08:45:23;101239.00;;;2.49;42.88
54920;BME280;63804;53.120;8.764;2022-12-11T08:47:49;101244.88;;;2.61;42.37
54920;BME280;63804;53.120;8.764;2022-12-11T08:50:21;101248.34;;;2.67;42.50
54920;BME280;63804;53.120;8.764;2022-12-11T08:52:47;101244.00;;;2.76;42.22
54920;BME280;63804;53.120;8.764;2022-12-11T08:55:12;101251.03;;;2.72;42.14
54920;BME280;63804;53.120;8.764;2022-12-11T08:57:38;101253.19;;;2.70;42.38
54920;BME280;63804;53.120;8.764;2022-12-11T09:00:06;101249.47;;;2.55;42.79
54920;BME280;63804;53.120;8.764;2022-12-11T09:02:33;101252.63;;;2.73;42.35
54920;BME280;63804;53.120;8.764;2022-12-11T09:04:59;101252.13;;;2.66;42.43
54920;BME280;63804;53.120;8.764;2022-12-11T09:07:25;101248.94;;;2.58;42.56
54920;BME280;63804;53.120;8.764;2022-12-11T09:09:53;101252.38;;;2.69;42.54
54920;BME280;63804;53.120;8.764;2022-12-11T09:12:19;101252.56;;;2.83;42.20
54920;BME280;63804;53.120;8.764;2022-12-11T09:14:45;101252.34;;;2.79;42.07
54920;BME280;63804;53.120;8.764;2022-12-11T09:17:11;101254.84;;;2.66;42.29
54920;BME280;63804;53.120;8.764;2022-12-11T09:19:37;101244.03;;;2.71;42.40
54920;BME280;63804;53.120;8.764;2022-12-11T09:22:02;101231.03;;;2.78;42.16
54920;BME280;63804;53.120;8.764;2022-12-11T09:24:28;101237.47;;;2.87;42.19
54920;BME280;63804;53.120;8.764;2022-12-11T09:26:54;101234.97;;;3.01;41.70
54920;BME280;63804;53.120;8.764;2022-12-11T09:29:22;101227.28;;;2.79;42.07
54920;BME280;63804;53.120;8.764;2022-12-11T09:31:48;101231.00;;;2.83;42.12
54920;BME280;63804;53.120;8.764;2022-12-11T09:34:14;101232.84;;;2.93;41.96
54920;BME280;63804;53.120;8.764;2022-12-11T09:36:41;101239.06;;;2.88;41.98
54920;BME280;63804;53.120;8.764;2022-12-11T09:39:08;101229.03;;;2.99;41.95
54920;BME280;63804;53.120;8.764;2022-12-11T09:41:39;101229.09;;;2.89;42.09
54920;BME280;63804;53.120;8.764;2022-12-11T09:46:53;101228.88;;;2.75;42.01
54920;BME280;63804;53.120;8.764;2022-12-11T09:49:46;101225.78;;;2.52;42.57
54920;BME280;63804;53.120;8.764;2022-12-11T09:52:18;101227.06;;;2.65;42.53
54920;BME280;63804;53.120;8.764;2022-12-11T09:54:54;101224.31;;;2.81;42.35
54920;BME280;63804;53.120;8.764;2022-12-11T10:00:16;101229.91;;;2.89;42.04
54920;BME280;63804;53.120;8.764;2022-12-11T10:08:29;101231.50;;;2.95;41.87
54920;BME280;63804;53.120;8.764;2022-12-11T10:11:29;101226.09;;;2.95;42.12
54920;BME280;63804;53.120;8.764;2022-12-11T10:14:21;101229.91;;;2.89;42.20
54920;BME280;63804;53.120;8.764;2022-12-11T10:16:51;101221.91;;;2.74;42.50
54920;BME280;63804;53.120;8.764;2022-12-11T10:19:23;101214.53;;;2.90;42.60
54920;BME280;63804;53.120;8.764;2022-12-11T10:21:51;101216.34;;;3.00;42.36
54920;BME280;63804;53.120;8.764;2022-12-11T10:24:27;101213.66;;;3.00;42.00
54920;BME280;63804;53.120;8.764;2022-12-11T10:26:58;101212.69;;;2.85;42.45
54920;BME280;63804;53.120;8.764;2022-12-11T10:29:27;101215.06;;;2.87;42.22
54920;BME280;63804;53.120;8.764;2022-12-11T10:31:57;101213.16;;;2.92;42.18
54920;BME280;63804;53.120;8.764;2022-12-11T10:36:52;101218.50;;;3.03;42.07
54920;BME280;63804;53.120;8.764;2022-12-11T10:39:20;101215.28;;;3.01;41.99
54920;BME280;63804;53.120;8.764;2022-12-11T10:41:48;101213.81;;;3.19;41.73
54920;BME280;63804;53.120;8.764;2022-12-11T10:44:28;101206.88;;;3.07;42.19
54920;BME280;63804;53.120;8.764;2022-12-11T10:47:11;101209.81;;;3.11;42.08
54920;BME280;63804;53.120;8.764;2022-12-11T10:49:42;101203.03;;;3.13;42.07
54920;BME280;63804;53.120;8.764;2022-12-11T10:52:10;101199.47;;;3.23;41.90
54920;BME280;63804;53.120;8.764;2022-12-11T10:54:39;101201.22;;;3.09;42.03
54920;BME280;63804;53.120;8.764;2022-12-11T10:57:09;101203.66;;;3.05;42.29
54920;BME280;63804;53.120;8.764;2022-12-11T11:02:34;101197.88;;;2.77;42.93
54920;BME280;63804;53.120;8.764;2022-12-11T11:05:12;101190.50;;;2.93;42.53
54920;BME280;63804;53.120;8.764;2022-12-11T11:07:38;101190.22;;;2.95;42.60
54920;BME280;63804;53.120;8.764;2022-12-11T11:12:38;101182.72;;;2.87;42.44
54920;BME280;63804;53.120;8.764;2022-12-11T11:17:48;101175.66;;;2.96;42.63
54920;BME280;63804;53.120;8.764;2022-12-11T11:20:17;101178.53;;;3.10;42.37
54920;BME280;63804;53.120;8.764;2022-12-11T11:22:46;101167.31;;;3.32;41.98
54920;BME280;63804;53.120;8.764;2022-12-11T11:25:20;101165.94;;;3.34;41.78
54920;BME280;63804;53.120;8.764;2022-12-11T11:28:06;101164.28;;;3.44;41.84
54920;BME280;63804;53.120;8.764;2022-12-11T11:30:35;101166.69;;;3.40;41.72
54920;BME280;63804;53.120;8.764;2022-12-11T11:33:11;101159.94;;;3.43;41.78
54920;BME280;63804;53.120;8.764;2022-12-11T11:35:37;101151.00;;;3.47;41.76
54920;BME280;63804;53.120;8.764;2022-12-11T11:40:43;101152.66;;;3.43;41.72
54920;BME280;63804;53.120;8.764;2022-12-11T11:46:13;101147.53;;;3.07;42.13
54920;BME280;63804;53.120;8.764;2022-12-11T11:51:16;101145.56;;;3.18;42.12
54920;BME280;63804;53.120;8.764;2022-12-11T11:53:48;101148.13;;;3.33;41.95
54920;BME280;63804;53.120;8.764;2022-12-11T11:56:32;101147.66;;;3.26;41.96
54920;BME280;63804;53.120;8.764;2022-12-11T12:01:31;101159.50;;;3.30;42.22
54920;BME280;63804;53.120;8.764;2022-12-11T12:03:58;101160.56;;;3.29;42.28
54920;BME280;63804;53.120;8.764;2022-12-11T12:11:56;101164.47;;;3.13;42.60
54920;BME280;63804;53.120;8.764;2022-12-11T12:14:53;101160.38;;;3.21;42.31
54920;BME280;63804;53.120;8.764;2022-12-11T12:23:17;101164.31;;;3.33;42.37
54920;BME280;63804;53.120;8.764;2022-12-11T12:26:00;101156.97;;;3.44;42.10
54920;BME280;63804;53.120;8.764;2022-12-11T12:44:27;101155.28;;;3.19;42.58
54920;BME280;63804;53.120;8.764;2022-12-11T12:47:02;101159.81;;;3.24;42.64
54920;BME280;63804;53.120;8.764;2022-12-11T12:49:37;101158.47;;;3.21;42.61
54920;BME280;63804;53.120;8.764;2022-12-11T12:52:09;101156.44;;;3.08;42.96
54920;BME280;63804;53.120;8.764;2022-12-11T12:54:37;101160.19;;;3.07;42.94
54920;BME280;63804;53.120;8.764;2022-12-11T12:57:04;101156.44;;;3.08;43.11
54920;BME280;63804;53.120;8.764;2022-12-11T12:59:30;101156.66;;;3.11;43.17
54920;BME280;63804;53.120;8.764;2022-12-11T13:01:59;101160.63;;;3.24;42.73
54920;BME280;63804;53.120;8.764;2022-12-11T13:04:40;101162.06;;;3.11;42.94
54920;BME280;63804;53.120;8.764;2022-12-11T13:07:19;101158.25;;;3.18;42.83
54920;BME280;63804;53.120;8.764;2022-12-11T13:10:06;101159.00;;;3.23;42.61
54920;BME280;63804;53.120;8.764;2022-12-11T13:12:44;101161.97;;;3.22;42.92
54920;BME280;63804;53.120;8.764;2022-12-11T13:17:59;101159.22;;;3.27;42.70
54920;BME280;63804;53.120;8.764;2022-12-11T13:20:27;101156.91;;;3.15;43.19
54920;BME280;63804;53.120;8.764;2022-12-11T13:22:55;101162.31;;;3.15;42.82
54920;BME280;63804;53.120;8.764;2022-12-11T13:25:47;101159.59;;;3.15;42.89
54920;BME280;63804;53.120;8.764;2022-12-11T13:28:23;101164.75;;;3.11;43.17
54920;BME280;63804;53.120;8.764;2022-12-11T13:31:06;101159.41;;;3.06;43.24
54920;BME280;63804;53.120;8.764;2022-12-11T13:33:38;101158.13;;;2.93;43.40
54920;BME280;63804;53.120;8.764;2022-12-11T13:38:35;101160.28;;;2.96;43.57
54920;BME280;63804;53.120;8.764;2022-12-11T13:41:02;101159.91;;;3.08;43.47
54920;BME280;63804;53.120;8.764;2022-12-11T13:43:37;101162.56;;;3.19;43.21
54920;BME280;63804;53.120;8.764;2022-12-11T13:46:11;101166.06;;;3.19;43.16
54920;BME280;63804;53.120;8.764;2022-12-11T13:48:51;101160.63;;;3.24;42.90
54920;BME280;63804;53.120;8.764;2022-12-11T13:51:28;101162.31;;;3.15;43.19
54920;BME280;63804;53.120;8.764;2022-12-11T13:54:03;101162.25;;;3.20;43.34
54920;BME280;63804;53.120;8.764;2022-12-11T13:56:29;101165.28;;;3.13;43.25
54920;BME280;63804;53.120;8.764;2022-12-11T13:58:55;101160.72;;;3.14;43.23
54920;BME280;63804;53.120;8.764;2022-12-11T14:01:29;101171.50;;;3.14;43.42
54920;BME280;63804;53.120;8.764;2022-12-11T14:04:03;101168.78;;;3.14;43.26
54920;BME280;63804;53.120;8.764;2022-12-11T14:06:31;101165.13;;;3.00;43.50
54920;BME280;63804;53.120;8.764;2022-12-11T14:08:59;101157.50;;;3.12;43.42
54920;BME280;63804;53.120;8.764;2022-12-11T14:11:29;101168.19;;;3.22;43.47
54920;BME280;63804;53.120;8.764;2022-12-11T14:14:00;101163.56;;;3.28;43.24
54920;BME280;63804;53.120;8.764;2022-12-11T14:16:28;101157.41;;;3.22;43.51
54920;BME280;63804;53.120;8.764;2022-12-11T14:18:58;101163.28;;;3.29;43.41
54920;BME280;63804;53.120;8.764;2022-12-11T14:21:26;101163.84;;;3.26;43.42
54920;BME280;63804;53.120;8.764;2022-12-11T14:23:57;101155.22;;;3.24;43.57
54920;BME280;63804;53.120;8.764;2022-12-11T14:26:33;101164.25;;;3.09;43.79
54920;BME280;63804;53.120;8.764;2022-12-11T14:28:59;101167.81;;;3.00;43.87
54920;BME280;63804;53.120;8.764;2022-12-11T14:34:11;101162.91;;;3.07;43.90